sensor_id;sensor_type;location;lat;lon;timestamp;P1;durP1;ratioP1;P2;durP2;ratioP2
81815;SDS011;71249;52.084;5.304;2023-07-28T00:00:12;15.6;;;13.9;;
81815;SDS011;71249;52.084;5.304;2023-07-28T00:01:48;14.8;;;13.4;;
81815;SDS011;71249;52.084;5.304;2023-07-28T00:05:00;14.7;;;12.8;;
81815;SDS011;71249;52.084;5.304;2023-07-28T00:06:37;15.2;;;13.8;;
81815;SDS011;71249;52.084;5.304;2023-07-28T00:08:13;14.7;;;12.3;;
81815;SDS011;71249;52.084;5.304;2023-07-28T00:11:25;13.6;;;12.3;;
81815;SDS011;71249;52.084;5.304;2023-07-28T00:13:01;13.9;;;12.5;;
81815;SDS011;71249;52.084;5.304;2023-07-28T00:14:37;13.5;;;12.1;;
81815;SDS011;71249;52.084;5.304;2023-07-28T00:17:49;15.9;;;12.5;;
81815;SDS011;71249;52.084;5.304;2023-07-28T00:19:25;12.7;;;11.4;;
81815;SDS011;71249;52.084;5.304;2023-07-28T00:21:04;15.3;;;12.0;;
81815;SDS011;71249;52.084;5.304;2023-07-28T00:22:41;14.2;;;11.3;;
81815;SDS011;71249;52.084;5.304;2023-07-28T00:25:54;12.3;;;10.7;;
81815;SDS011;71249;52.084;5.304;2023-07-28T00:27:30;13.8;;;11.2;;
81815;SDS011;71249;52.084;5.304;2023-07-28T00:29:06;12.4;;;9.9;;
81815;SDS011;71249;52.084;5.304;2023-07-28T00:32:19;14.0;;;10.6;;
81815;SDS011;71249;52.084;5.304;2023-07-28T00:33:55;10.9;;;9.5;;
81815;SDS011;71249;52.084;5.304;2023-07-28T00:35:31;11.3;;;9.21;;
81815;SDS011;71249;52.084;5.304;2023-07-28T00:38:44;11.6;;;9.81;;
81815;SDS011;71249;52.084;5.304;2023-07-28T00:40:21;13.8;;;9.4;;
81815;SDS011;71249;52.084;5.304;2023-07-28T00:41:57;14.6;;;9.4;;
81815;SDS011;71249;52.084;5.304;2023-07-28T00:43:33;10.9;;;8.31;;
81815;SDS011;71249;52.084;5.304;2023-07-28T00:46:46;10.9;;;8.31;;
81815;SDS011;71249;52.084;5.304;2023-07-28T00:48:22;11.5;;;9.1;;
81815;SDS011;71249;52.084;5.304;2023-07-28T00:49:59;11.3;;;9.4;;
81815;SDS011;71249;52.084;5.304;2023-07-28T00:53:13;11.5;;;9.4;;
81815;SDS011;71249;52.084;5.304;2023-07-28T00:54:50;12.3;;;9.0;;
81815;SDS011;71249;52.084;5.304;2023-07-28T00:56:26;16.8;;;10.1;;
81815;SDS011;71249;52.084;5.304;2023-07-28T00:59:40;12.9;;;8.9;;
81815;SDS011;71249;52.084;5.304;2023-07-28T01:01:16;13.4;;;8.2;;
81815;SDS011;71249;52.084;5.304;2023-07-28T01:02:52;16.4;;;9.9;;
81815;SDS011;71249;52.084;5.304;2023-07-28T01:04:28;17.11;;;9.9;;
81815;SDS011;71249;52.084;5.304;2023-07-28T01:07:57;14.6;;;9.6;;
81815;SDS011;71249;52.084;5.304;2023-07-28T01:09:43;13.7;;;8.31;;
81815;SDS011;71249;52.084;5.304;2023-07-28T01:11:25;14.5;;;8.81;;
81815;SDS011;71249;52.084;5.304;2023-07-28T01:13:01;12.2;;;8.81;;
81815;SDS011;71249;52.084;5.304;2023-07-28T01:16:14;12.2;;;8.6;;
81815;SDS011;71249;52.084;5.304;2023-07-28T01:17:51;14.3;;;8.6;;
81815;SDS011;71249;52.084;5.304;2023-07-28T01:19:27;15.5;;;8.71;;
81815;SDS011;71249;52.084;5.304;2023-07-28T01:22:47;11.5;;;8.1;;
81815;SDS011;71249;52.084;5.304;2023-07-28T01:24:42;10.9;;;8.2;;
81815;SDS011;71249;52.084;5.304;2023-07-28T01:26:30;11.9;;;8.4;;
81815;SDS011;71249;52.084;5.304;2023-07-28T01:28:09;15.2;;;9.21;;
81815;SDS011;71249;52.084;5.304;2023-07-28T01:29:46;13.8;;;8.71;;
81815;SDS011;71249;52.084;5.304;2023-07-28T01:32:58;14.9;;;9.1;;
81815;SDS011;71249;52.084;5.304;2023-07-28T01:34:34;17.0;;;9.31;;
81815;SDS011;71249;52.084;5.304;2023-07-28T01:36:10;16.4;;;10.5;;
81815;SDS011;71249;52.084;5.304;2023-07-28T01:39:22;13.9;;;9.4;;
81815;SDS011;71249;52.084;5.304;2023-07-28T01:40:59;17.11;;;9.1;;
81815;SDS011;71249;52.084;5.304;2023-07-28T01:42:35;13.6;;;9.5;;
81815;SDS011;71249;52.084;5.304;2023-07-28T01:44:11;16.3;;;9.81;;
81815;SDS011;71249;52.084;5.304;2023-07-28T01:47:23;16.61;;;10.5;;
81815;SDS011;71249;52.084;5.304;2023-07-28T01:48:59;13.8;;;10.1;;
81815;SDS011;71249;52.084;5.304;2023-07-28T01:50:35;16.5;;;10.5;;
81815;SDS011;71249;52.084;5.304;2023-07-28T01:53:48;16.3;;;10.3;;
81815;SDS011;71249;52.084;5.304;2023-07-28T01:55:24;17.61;;;12.1;;
81815;SDS011;71249;52.084;5.304;2023-07-28T01:57:00;18.3;;;11.5;;
81815;SDS011;71249;52.084;5.304;2023-07-28T02:00:12;14.7;;;10.5;;
81815;SDS011;71249;52.084;5.304;2023-07-28T02:01:49;16.0;;;10.9;;
81815;SDS011;71249;52.084;5.304;2023-07-28T02:03:25;19.2;;;10.8;;
81815;SDS011;71249;52.084;5.304;2023-07-28T02:06:38;19.11;;;11.2;;
81815;SDS011;71249;52.084;5.304;2023-07-28T02:08:14;16.3;;;11.2;;
81815;SDS011;71249;52.084;5.304;2023-07-28T02:09:50;18.8;;;13.4;;
81815;SDS011;71249;52.084;5.304;2023-07-28T02:11:26;23.3;;;13.8;;
81815;SDS011;71249;52.084;5.304;2023-07-28T02:14:38;22.5;;;15.0;;
81815;SDS011;71249;52.084;5.304;2023-07-28T02:16:14;21.6;;;14.0;;
81815;SDS011;71249;52.084;5.304;2023-07-28T02:17:51;25.3;;;15.3;;
81815;SDS011;71249;52.084;5.304;2023-07-28T02:21:03;26.7;;;15.7;;
81815;SDS011;71249;52.084;5.304;2023-07-28T02:22:39;24.1;;;15.9;;
81815;SDS011;71249;52.084;5.304;2023-07-28T02:24:15;23.7;;;14.9;;
81815;SDS011;71249;52.084;5.304;2023-07-28T02:27:27;24.8;;;15.4;;
81815;SDS011;71249;52.084;5.304;2023-07-28T02:29:04;24.2;;;15.5;;
81815;SDS011;71249;52.084;5.304;2023-07-28T02:30:40;19.41;;;13.8;;
81815;SDS011;71249;52.084;5.304;2023-07-28T02:33:53;24.1;;;15.8;;
81815;SDS011;71249;52.084;5.304;2023-07-28T02:35:29;22.4;;;16.5;;
81815;SDS011;71249;52.084;5.304;2023-07-28T02:37:05;21.2;;;14.7;;
81815;SDS011;71249;52.084;5.304;2023-07-28T02:38:41;21.4;;;14.0;;
81815;SDS011;71249;52.084;5.304;2023-07-28T02:41:53;20.7;;;14.5;;
81815;SDS011;71249;52.084;5.304;2023-07-28T02:43:29;21.8;;;15.1;;
81815;SDS011;71249;52.084;5.304;2023-07-28T02:45:06;19.8;;;14.6;;
81815;SDS011;71249;52.084;5.304;2023-07-28T02:48:19;23.1;;;14.9;;
81815;SDS011;71249;52.084;5.304;2023-07-28T02:49:55;25.0;;;15.9;;
81815;SDS011;71249;52.084;5.304;2023-07-28T02:51:31;19.91;;;15.2;;
81815;SDS011;71249;52.084;5.304;2023-07-28T02:54:43;23.6;;;15.3;;
81815;SDS011;71249;52.084;5.304;2023-07-28T02:56:19;19.2;;;14.5;;
81815;SDS011;71249;52.084;5.304;2023-07-28T02:57:56;18.8;;;14.5;;
81815;SDS011;71249;52.084;5.304;2023-07-28T02:59:32;21.2;;;15.2;;
81815;SDS011;71249;52.084;5.304;2023-07-28T03:02:44;29.5;;;16.4;;
81815;SDS011;71249;52.084;5.304;2023-07-28T03:04:20;26.3;;;16.0;;
81815;SDS011;71249;52.084;5.304;2023-07-28T03:05:56;23.4;;;14.2;;
81815;SDS011;71249;52.084;5.304;2023-07-28T03:09:08;23.3;;;15.4;;
81815;SDS011;71249;52.084;5.304;2023-07-28T03:10:45;25.3;;;15.7;;
81815;SDS011;71249;52.084;5.304;2023-07-28T03:12:21;25.3;;;16.7;;
81815;SDS011;71249;52.084;5.304;2023-07-28T03:15:33;22.8;;;14.9;;
81815;SDS011;71249;52.084;5.304;2023-07-28T03:17:09;24.4;;;15.4;;
81815;SDS011;71249;52.084;5.304;2023-07-28T03:18:45;24.1;;;15.4;;
81815;SDS011;71249;52.084;5.304;2023-07-28T03:21:58;24.8;;;15.5;;
81815;SDS011;71249;52.084;5.304;2023-07-28T03:23:34;29.4;;;17.0;;
81815;SDS011;71249;52.084;5.304;2023-07-28T03:25:11;26.8;;;16.2;;
81815;SDS011;71249;52.084;5.304;2023-07-28T03:26:48;26.1;;;15.6;;
81815;SDS011;71249;52.084;5.304;2023-07-28T03:30:00;21.3;;;15.3;;
81815;SDS011;71249;52.084;5.304;2023-07-28T03:31:37;27.6;;;16.61;;
81815;SDS011;71249;52.084;5.304;2023-07-28T03:33:13;20.6;;;14.4;;
81815;SDS011;71249;52.084;5.304;2023-07-28T03:36:27;23.3;;;15.9;;
81815;SDS011;71249;52.084;5.304;2023-07-28T03:38:03;30.2;;;18.2;;
81815;SDS011;71249;52.084;5.304;2023-07-28T03:39:39;29.0;;;16.9;;
81815;SDS011;71249;52.084;5.304;2023-07-28T03:42:51;32.8;;;18.3;;
81815;SDS011;71249;52.084;5.304;2023-07-28T03:44:28;29.9;;;17.3;;
81815;SDS011;71249;52.084;5.304;2023-07-28T03:46:04;35.71;;;18.91;;
81815;SDS011;71249;52.084;5.304;2023-07-28T03:47:40;26.2;;;16.4;;
81815;SDS011;71249;52.084;5.304;2023-07-28T03:50:54;26.4;;;17.41;;
81815;SDS011;71249;52.084;5.304;2023-07-28T03:52:30;27.5;;;17.2;;
81815;SDS011;71249;52.084;5.304;2023-07-28T03:54:06;28.7;;;16.9;;
81815;SDS011;71249;52.084;5.304;2023-07-28T03:57:18;26.1;;;17.0;;
81815;SDS011;71249;52.084;5.304;2023-07-28T03:58:54;30.6;;;18.7;;
81815;SDS011;71249;52.084;5.304;2023-07-28T04:00:31;35.6;;;20.0;;
81815;SDS011;71249;52.084;5.304;2023-07-28T04:03:43;34.6;;;19.61;;
81815;SDS011;71249;52.084;5.304;2023-07-28T04:05:19;29.5;;;18.8;;
81815;SDS011;71249;52.084;5.304;2023-07-28T04:06:55;32.8;;;19.11;;
81815;SDS011;71249;52.084;5.304;2023-07-28T04:10:08;25.1;;;17.8;;
81815;SDS011;71249;52.084;5.304;2023-07-28T04:11:44;24.3;;;16.7;;
81815;SDS011;71249;52.084;5.304;2023-07-28T04:13:20;34.21;;;19.8;;
81815;SDS011;71249;52.084;5.304;2023-07-28T04:14:56;30.5;;;18.91;;
81815;SDS011;71249;52.084;5.304;2023-07-28T04:18:09;28.2;;;17.2;;
81815;SDS011;71249;52.084;5.304;2023-07-28T04:19:45;36.6;;;19.91;;
81815;SDS011;71249;52.084;5.304;2023-07-28T04:21:21;28.9;;;17.91;;
81815;SDS011;71249;52.084;5.304;2023-07-28T04:24:34;25.5;;;17.41;;
81815;SDS011;71249;52.084;5.304;2023-07-28T04:26:10;27.9;;;18.41;;
81815;SDS011;71249;52.084;5.304;2023-07-28T04:27:46;33.0;;;18.61;;
81815;SDS011;71249;52.084;5.304;2023-07-28T04:30:58;34.9;;;19.11;;
81815;SDS011;71249;52.084;5.304;2023-07-28T04:32:34;30.2;;;18.3;;
81815;SDS011;71249;52.084;5.304;2023-07-28T04:34:10;33.71;;;18.8;;
81815;SDS011;71249;52.084;5.304;2023-07-28T04:35:47;38.1;;;20.6;;
81815;SDS011;71249;52.084;5.304;2023-07-28T04:38:59;34.4;;;20.3;;
81815;SDS011;71249;52.084;5.304;2023-07-28T04:40:35;39.31;;;19.5;;
81815;SDS011;71249;52.084;5.304;2023-07-28T04:45:23;30.0;;;17.91;;
81815;SDS011;71249;52.084;5.304;2023-07-28T04:46:59;37.81;;;20.41;;
81815;SDS011;71249;52.084;5.304;2023-07-28T04:48:35;35.31;;;19.5;;
81815;SDS011;71249;52.084;5.304;2023-07-28T04:51:48;33.1;;;18.8;;
81815;SDS011;71249;52.084;5.304;2023-07-28T04:53:24;28.8;;;18.0;;
81815;SDS011;71249;52.084;5.304;2023-07-28T04:55:00;29.8;;;18.2;;
81815;SDS011;71249;52.084;5.304;2023-07-28T04:58:12;30.3;;;19.11;;
81815;SDS011;71249;52.084;5.304;2023-07-28T04:59:48;31.3;;;18.7;;
81815;SDS011;71249;52.084;5.304;2023-07-28T05:01:24;26.4;;;17.61;;
81815;SDS011;71249;52.084;5.304;2023-07-28T05:03:02;33.6;;;18.61;;
81815;SDS011;71249;52.084;5.304;2023-07-28T05:06:14;30.6;;;17.91;;
81815;SDS011;71249;52.084;5.304;2023-07-28T05:07:50;34.21;;;17.91;;
81815;SDS011;71249;52.084;5.304;2023-07-28T05:09:26;33.21;;;19.61;;
81815;SDS011;71249;52.084;5.304;2023-07-28T05:12:38;32.71;;;17.8;;
81815;SDS011;71249;52.084;5.304;2023-07-28T05:14:14;29.6;;;17.2;;
81815;SDS011;71249;52.084;5.304;2023-07-28T05:15:51;29.3;;;17.91;;
81815;SDS011;71249;52.084;5.304;2023-07-28T05:19:04;31.0;;;19.11;;
81815;SDS011;71249;52.084;5.304;2023-07-28T05:20:43;32.71;;;18.8;;
81815;SDS011;71249;52.084;5.304;2023-07-28T05:22:19;37.5;;;21.2;;
81815;SDS011;71249;52.084;5.304;2023-07-28T05:23:55;26.3;;;17.3;;
81815;SDS011;71249;52.084;5.304;2023-07-28T05:27:08;27.8;;;18.8;;
81815;SDS011;71249;52.084;5.304;2023-07-28T05:28:44;28.9;;;17.61;;
81815;SDS011;71249;52.084;5.304;2023-07-28T05:30:20;31.1;;;18.8;;
81815;SDS011;71249;52.084;5.304;2023-07-28T05:33:34;33.8;;;20.11;;
81815;SDS011;71249;52.084;5.304;2023-07-28T05:35:10;27.7;;;18.61;;
81815;SDS011;71249;52.084;5.304;2023-07-28T05:36:46;30.0;;;18.5;;
81815;SDS011;71249;52.084;5.304;2023-07-28T05:39:59;35.21;;;19.11;;
81815;SDS011;71249;52.084;5.304;2023-07-28T05:41:35;29.6;;;19.5;;
81815;SDS011;71249;52.084;5.304;2023-07-28T05:43:12;33.4;;;18.91;;
81815;SDS011;71249;52.084;5.304;2023-07-28T05:44:48;32.71;;;18.8;;
81815;SDS011;71249;52.084;5.304;2023-07-28T05:48:00;30.0;;;19.5;;
81815;SDS011;71249;52.084;5.304;2023-07-28T05:49:36;30.5;;;19.11;;
81815;SDS011;71249;52.084;5.304;2023-07-28T05:51:13;31.6;;;19.41;;
81815;SDS011;71249;52.084;5.304;2023-07-28T05:54:26;31.4;;;19.5;;
81815;SDS011;71249;52.084;5.304;2023-07-28T05:56:02;29.7;;;19.11;;
81815;SDS011;71249;52.084;5.304;2023-07-28T05:57:38;31.9;;;18.8;;
81815;SDS011;71249;52.084;5.304;2023-07-28T06:00:50;30.5;;;18.8;;
81815;SDS011;71249;52.084;5.304;2023-07-28T06:02:26;30.9;;;19.61;;
81815;SDS011;71249;52.084;5.304;2023-07-28T06:04:03;25.0;;;18.11;;
81815;SDS011;71249;52.084;5.304;2023-07-28T06:07:15;28.0;;;18.41;;
81815;SDS011;71249;52.084;5.304;2023-07-28T06:08:51;29.5;;;18.41;;
81815;SDS011;71249;52.084;5.304;2023-07-28T06:10:27;32.4;;;19.41;;
81815;SDS011;71249;52.084;5.304;2023-07-28T06:12:03;31.0;;;20.5;;
81815;SDS011;71249;52.084;5.304;2023-07-28T06:15:17;31.0;;;19.8;;
81815;SDS011;71249;52.084;5.304;2023-07-28T06:16:52;31.6;;;21.5;;
81815;SDS011;71249;52.084;5.304;2023-07-28T06:18:29;27.1;;;18.3;;
81815;SDS011;71249;52.084;5.304;2023-07-28T06:21:42;30.3;;;20.7;;
81815;SDS011;71249;52.084;5.304;2023-07-28T06:23:18;28.0;;;19.8;;
81815;SDS011;71249;52.084;5.304;2023-07-28T06:24:54;27.9;;;19.2;;
81815;SDS011;71249;52.084;5.304;2023-07-28T06:28:06;30.0;;;20.11;;
81815;SDS011;71249;52.084;5.304;2023-07-28T06:29:43;28.6;;;19.41;;
81815;SDS011;71249;52.084;5.304;2023-07-28T06:31:19;29.3;;;19.2;;
81815;SDS011;71249;52.084;5.304;2023-07-28T06:32:55;26.8;;;18.2;;
81815;SDS011;71249;52.084;5.304;2023-07-28T06:36:07;24.6;;;17.8;;
81815;SDS011;71249;52.084;5.304;2023-07-28T06:37:43;29.1;;;19.8;;
81815;SDS011;71249;52.084;5.304;2023-07-28T06:39:20;29.0;;;19.5;;
81815;SDS011;71249;52.084;5.304;2023-07-28T06:42:32;29.0;;;19.5;;
81815;SDS011;71249;52.084;5.304;2023-07-28T06:44:09;29.8;;;20.3;;
81815;SDS011;71249;52.084;5.304;2023-07-28T06:45:45;29.8;;;20.2;;
81815;SDS011;71249;52.084;5.304;2023-07-28T06:48:57;26.4;;;19.2;;
81815;SDS011;71249;52.084;5.304;2023-07-28T06:50:33;29.4;;;19.61;;
81815;SDS011;71249;52.084;5.304;2023-07-28T06:52:10;27.2;;;18.61;;
81815;SDS011;71249;52.084;5.304;2023-07-28T06:55:22;26.1;;;19.8;;
81815;SDS011;71249;52.084;5.304;2023-07-28T06:56:59;31.8;;;20.7;;
81815;SDS011;71249;52.084;5.304;2023-07-28T06:58:35;29.6;;;19.7;;
81815;SDS011;71249;52.084;5.304;2023-07-28T07:00:11;30.7;;;20.9;;
81815;SDS011;71249;52.084;5.304;2023-07-28T07:03:24;28.2;;;20.5;;
81815;SDS011;71249;52.084;5.304;2023-07-28T07:05:01;26.0;;;18.91;;
81815;SDS011;71249;52.084;5.304;2023-07-28T07:06:37;28.4;;;18.91;;
81815;SDS011;71249;52.084;5.304;2023-07-28T07:09:49;29.8;;;18.5;;
81815;SDS011;71249;52.084;5.304;2023-07-28T07:11:25;27.6;;;19.61;;
81815;SDS011;71249;52.084;5.304;2023-07-28T07:13:01;25.3;;;17.91;;
81815;SDS011;71249;52.084;5.304;2023-07-28T07:16:14;29.2;;;19.61;;
81815;SDS011;71249;52.084;5.304;2023-07-28T07:17:51;27.0;;;18.8;;
81815;SDS011;71249;52.084;5.304;2023-07-28T07:19:27;26.8;;;18.8;;
81815;SDS011;71249;52.084;5.304;2023-07-28T07:21:04;25.8;;;18.61;;
81815;SDS011;71249;52.084;5.304;2023-07-28T07:24:16;25.2;;;18.41;;
81815;SDS011;71249;52.084;5.304;2023-07-28T07:25:52;23.0;;;17.11;;
81815;SDS011;71249;52.084;5.304;2023-07-28T07:27:28;26.2;;;17.11;;
81815;SDS011;71249;52.084;5.304;2023-07-28T07:30:41;23.5;;;16.5;;
81815;SDS011;71249;52.084;5.304;2023-07-28T07:32:17;24.5;;;16.11;;
81815;SDS011;71249;52.084;5.304;2023-07-28T07:33:53;24.6;;;14.9;;
81815;SDS011;71249;52.084;5.304;2023-07-28T07:37:05;24.0;;;15.8;;
81815;SDS011;71249;52.084;5.304;2023-07-28T07:38:41;22.5;;;15.8;;
81815;SDS011;71249;52.084;5.304;2023-07-28T07:40:17;21.1;;;15.1;;
81815;SDS011;71249;52.084;5.304;2023-07-28T07:43:29;20.11;;;13.3;;
81815;SDS011;71249;52.084;5.304;2023-07-28T07:45:06;20.6;;;13.7;;
81815;SDS011;71249;52.084;5.304;2023-07-28T07:46:43;18.0;;;12.6;;
81815;SDS011;71249;52.084;5.304;2023-07-28T07:48:19;19.7;;;11.1;;
81815;SDS011;71249;52.084;5.304;2023-07-28T07:51:31;18.3;;;12.0;;
81815;SDS011;71249;52.084;5.304;2023-07-28T07:53:07;17.7;;;11.2;;
81815;SDS011;71249;52.084;5.304;2023-07-28T07:54:43;17.61;;;11.9;;
81815;SDS011;71249;52.084;5.304;2023-07-28T07:57:56;18.0;;;11.6;;
81815;SDS011;71249;52.084;5.304;2023-07-28T07:59:32;17.8;;;10.6;;
81815;SDS011;71249;52.084;5.304;2023-07-28T08:01:08;17.0;;;10.9;;
81815;SDS011;71249;52.084;5.304;2023-07-28T08:04:20;18.61;;;12.4;;
81815;SDS011;71249;52.084;5.304;2023-07-28T08:05:56;18.7;;;11.6;;
81815;SDS011;71249;52.084;5.304;2023-07-28T08:07:32;16.11;;;10.7;;
81815;SDS011;71249;52.084;5.304;2023-07-28T08:09:08;20.6;;;11.5;;
81815;SDS011;71249;52.084;5.304;2023-07-28T08:12:21;16.7;;;10.6;;
81815;SDS011;71249;52.084;5.304;2023-07-28T08:13:57;16.11;;;9.71;;
81815;SDS011;71249;52.084;5.304;2023-07-28T08:15:33;15.2;;;9.0;;
81815;SDS011;71249;52.084;5.304;2023-07-28T08:18:46;15.2;;;10.0;;
81815;SDS011;71249;52.084;5.304;2023-07-28T08:20:22;16.9;;;9.81;;
81815;SDS011;71249;52.084;5.304;2023-07-28T08:21:59;16.5;;;8.1;;
81815;SDS011;71249;52.084;5.304;2023-07-28T08:25:11;14.1;;;7.7;;
81815;SDS011;71249;52.084;5.304;2023-07-28T08:26:47;15.6;;;8.0;;
81815;SDS011;71249;52.084;5.304;2023-07-28T08:28:23;18.61;;;7.5;;
81815;SDS011;71249;52.084;5.304;2023-07-28T08:31:36;15.4;;;7.2;;
81815;SDS011;71249;52.084;5.304;2023-07-28T08:33:13;13.7;;;7.2;;
81815;SDS011;71249;52.084;5.304;2023-07-28T08:34:48;12.5;;;7.4;;
81815;SDS011;71249;52.084;5.304;2023-07-28T08:36:25;15.1;;;6.3;;
81815;SDS011;71249;52.084;5.304;2023-07-28T08:39:37;15.4;;;7.0;;
81815;SDS011;71249;52.084;5.304;2023-07-28T08:41:13;15.7;;;6.1;;
81815;SDS011;71249;52.084;5.304;2023-07-28T08:42:49;14.1;;;6.3;;
81815;SDS011;71249;52.084;5.304;2023-07-28T08:46:05;11.4;;;5.5;;
81815;SDS011;71249;52.084;5.304;2023-07-28T08:47:42;12.8;;;5.9;;
81815;SDS011;71249;52.084;5.304;2023-07-28T08:49:18;14.3;;;6.0;;
81815;SDS011;71249;52.084;5.304;2023-07-28T08:52:30;10.8;;;5.5;;
81815;SDS011;71249;52.084;5.304;2023-07-28T08:54:06;9.5;;;5.9;;
81815;SDS011;71249;52.084;5.304;2023-07-28T08:55:42;12.6;;;5.6;;
81815;SDS011;71249;52.084;5.304;2023-07-28T08:57:18;11.3;;;5.3;;
81815;SDS011;71249;52.084;5.304;2023-07-28T09:00:34;9.81;;;5.2;;
81815;SDS011;71249;52.084;5.304;2023-07-28T09:02:14;13.8;;;5.7;;
81815;SDS011;71249;52.084;5.304;2023-07-28T09:03:52;12.0;;;5.6;;
81815;SDS011;71249;52.084;5.304;2023-07-28T09:07:04;10.1;;;5.0;;
81815;SDS011;71249;52.084;5.304;2023-07-28T09:08:41;10.8;;;5.2;;
81815;SDS011;71249;52.084;5.304;2023-07-28T09:10:19;9.9;;;5.2;;
81815;SDS011;71249;52.084;5.304;2023-07-28T09:11:55;10.1;;;4.91;;
81815;SDS011;71249;52.084;5.304;2023-07-28T09:15:13;13.0;;;5.8;;
81815;SDS011;71249;52.084;5.304;2023-07-28T09:16:49;9.81;;;5.5;;
81815;SDS011;71249;52.084;5.304;2023-07-28T09:18:25;10.7;;;5.9;;
81815;SDS011;71249;52.084;5.304;2023-07-28T09:21:37;11.3;;;5.2;;
81815;SDS011;71249;52.084;5.304;2023-07-28T09:23:16;7.6;;;4.8;;
81815;SDS011;71249;52.084;5.304;2023-07-28T09:24:52;9.0;;;5.2;;
81815;SDS011;71249;52.084;5.304;2023-07-28T09:28:13;8.71;;;4.5;;
81815;SDS011;71249;52.084;5.304;2023-07-28T09:29:50;7.2;;;4.1;;
81815;SDS011;71249;52.084;5.304;2023-07-28T09:31:30;8.0;;;4.2;;
81815;SDS011;71249;52.084;5.304;2023-07-28T09:33:06;8.5;;;3.7;;
81815;SDS011;71249;52.084;5.304;2023-07-28T09:36:18;7.1;;;4.8;;
81815;SDS011;71249;52.084;5.304;2023-07-28T09:37:54;8.1;;;4.91;;
81815;SDS011;71249;52.084;5.304;2023-07-28T09:39:31;6.2;;;3.8;;
81815;SDS011;71249;52.084;5.304;2023-07-28T09:41:10;7.7;;;4.5;;
81815;SDS011;71249;52.084;5.304;2023-07-28T09:44:25;8.2;;;4.0;;
81815;SDS011;71249;52.084;5.304;2023-07-28T09:46:03;8.81;;;4.41;;
81815;SDS011;71249;52.084;5.304;2023-07-28T09:47:40;8.9;;;4.0;;
81815;SDS011;71249;52.084;5.304;2023-07-28T09:51:05;8.31;;;4.3;;
81815;SDS011;71249;52.084;5.304;2023-07-28T09:52:49;7.2;;;4.3;;
81815;SDS011;71249;52.084;5.304;2023-07-28T09:54:30;6.4;;;3.8;;
81815;SDS011;71249;52.084;5.304;2023-07-28T09:56:09;7.5;;;4.61;;
81815;SDS011;71249;52.084;5.304;2023-07-28T09:59:31;7.0;;;3.8;;
81815;SDS011;71249;52.084;5.304;2023-07-28T10:01:13;7.4;;;3.7;;
81815;SDS011;71249;52.084;5.304;2023-07-28T10:02:49;7.4;;;3.7;;
81815;SDS011;71249;52.084;5.304;2023-07-28T10:04:26;7.9;;;4.1;;
81815;SDS011;71249;52.084;5.304;2023-07-28T10:07:40;6.3;;;3.9;;
81815;SDS011;71249;52.084;5.304;2023-07-28T10:09:20;5.11;;;3.7;;
81815;SDS011;71249;52.084;5.304;2023-07-28T10:10:57;5.3;;;3.3;;
81815;SDS011;71249;52.084;5.304;2023-07-28T10:12:39;4.91;;;3.5;;
81815;SDS011;71249;52.084;5.304;2023-07-28T10:16:01;7.2;;;4.1;;
81815;SDS011;71249;52.084;5.304;2023-07-28T10:17:37;7.0;;;3.8;;
81815;SDS011;71249;52.084;5.304;2023-07-28T10:19:13;7.9;;;4.8;;
81815;SDS011;71249;52.084;5.304;2023-07-28T10:20:56;6.2;;;3.9;;
81815;SDS011;71249;52.084;5.304;2023-07-28T10:24:20;5.4;;;3.9;;
81815;SDS011;71249;52.084;5.304;2023-07-28T10:26:41;5.4;;;4.2;;
81815;SDS011;71249;52.084;5.304;2023-07-28T10:28:25;6.9;;;4.61;;
81815;SDS011;71249;52.084;5.304;2023-07-28T10:30:04;6.2;;;4.5;;
81815;SDS011;71249;52.084;5.304;2023-07-28T10:31:49;9.81;;;5.3;;
81815;SDS011;71249;52.084;5.304;2023-07-28T10:33:28;9.6;;;5.2;;
81815;SDS011;71249;52.084;5.304;2023-07-28T10:36:44;6.6;;;4.5;;
81815;SDS011;71249;52.084;5.304;2023-07-28T10:38:29;7.0;;;4.7;;
81815;SDS011;71249;52.084;5.304;2023-07-28T10:40:23;5.5;;;4.8;;
81815;SDS011;71249;52.084;5.304;2023-07-28T10:42:04;6.6;;;4.61;;
81815;SDS011;71249;52.084;5.304;2023-07-28T10:45:18;7.7;;;4.2;;
81815;SDS011;71249;52.084;5.304;2023-07-28T10:46:56;6.6;;;4.41;;
81815;SDS011;71249;52.084;5.304;2023-07-28T10:48:34;6.5;;;4.1;;
81815;SDS011;71249;52.084;5.304;2023-07-28T10:50:11;5.6;;;3.7;;
81815;SDS011;71249;52.084;5.304;2023-07-28T10:53:24;8.1;;;4.41;;
81815;SDS011;71249;52.084;5.304;2023-07-28T10:55:00;9.1;;;4.3;;
81815;SDS011;71249;52.084;5.304;2023-07-28T10:56:36;6.3;;;4.3;;
81815;SDS011;71249;52.084;5.304;2023-07-28T10:59:50;7.7;;;5.4;;
81815;SDS011;71249;52.084;5.304;2023-07-28T11:01:30;10.5;;;5.0;;
81815;SDS011;71249;52.084;5.304;2023-07-28T11:04:45;8.5;;;5.11;;
81815;SDS011;71249;52.084;5.304;2023-07-28T11:06:21;9.31;;;6.7;;
81815;SDS011;71249;52.084;5.304;2023-07-28T11:07:58;9.71;;;6.5;;
81815;SDS011;71249;52.084;5.304;2023-07-28T11:09:39;12.5;;;6.4;;
81815;SDS011;71249;52.084;5.304;2023-07-28T11:11:15;8.71;;;5.9;;
81815;SDS011;71249;52.084;5.304;2023-07-28T11:14:29;7.3;;;4.7;;
81815;SDS011;71249;52.084;5.304;2023-07-28T11:16:05;4.8;;;3.6;;
81815;SDS011;71249;52.084;5.304;2023-07-28T11:17:43;5.2;;;4.0;;
81815;SDS011;71249;52.084;5.304;2023-07-28T11:20:58;8.1;;;4.7;;
81815;SDS011;71249;52.084;5.304;2023-07-28T11:22:36;8.6;;;4.61;;
81815;SDS011;71249;52.084;5.304;2023-07-28T11:24:11;7.8;;;5.0;;
81815;SDS011;71249;52.084;5.304;2023-07-28T11:25:54;6.4;;;4.91;;
81815;SDS011;71249;52.084;5.304;2023-07-28T11:29:07;9.81;;;6.7;;
81815;SDS011;71249;52.084;5.304;2023-07-28T11:30:43;7.1;;;6.1;;
81815;SDS011;71249;52.084;5.304;2023-07-28T11:32:19;10.21;;;7.3;;
81815;SDS011;71249;52.084;5.304;2023-07-28T11:35:33;9.1;;;7.3;;
81815;SDS011;71249;52.084;5.304;2023-07-28T11:37:10;8.81;;;6.9;;
81815;SDS011;71249;52.084;5.304;2023-07-28T11:38:46;11.2;;;7.6;;
81815;SDS011;71249;52.084;5.304;2023-07-28T11:41:58;12.5;;;8.2;;
81815;SDS011;71249;52.084;5.304;2023-07-28T11:43:34;9.71;;;7.3;;
81815;SDS011;71249;52.084;5.304;2023-07-28T11:45:12;10.1;;;6.9;;
81815;SDS011;71249;52.084;5.304;2023-07-28T11:46:50;11.4;;;7.5;;
81815;SDS011;71249;52.084;5.304;2023-07-28T11:50:06;9.71;;;7.4;;
81815;SDS011;71249;52.084;5.304;2023-07-28T11:51:43;10.21;;;6.8;;
81815;SDS011;71249;52.084;5.304;2023-07-28T11:53:20;11.9;;;7.1;;
81815;SDS011;71249;52.084;5.304;2023-07-28T11:56:34;8.9;;;6.3;;
81815;SDS011;71249;52.084;5.304;2023-07-28T11:58:11;11.0;;;7.0;;
81815;SDS011;71249;52.084;5.304;2023-07-28T11:59:48;10.6;;;7.9;;
81815;SDS011;71249;52.084;5.304;2023-07-28T12:01:24;9.4;;;6.3;;
81815;SDS011;71249;52.084;5.304;2023-07-28T12:04:40;10.5;;;6.4;;
81815;SDS011;71249;52.084;5.304;2023-07-28T12:06:16;10.7;;;6.4;;
81815;SDS011;71249;52.084;5.304;2023-07-28T12:07:52;8.0;;;5.3;;
81815;SDS011;71249;52.084;5.304;2023-07-28T12:11:05;7.3;;;5.2;;
81815;SDS011;71249;52.084;5.304;2023-07-28T12:12:47;7.7;;;5.5;;
81815;SDS011;71249;52.084;5.304;2023-07-28T12:14:32;7.4;;;4.91;;
81815;SDS011;71249;52.084;5.304;2023-07-28T12:16:09;7.4;;;4.7;;
81815;SDS011;71249;52.084;5.304;2023-07-28T12:19:41;5.6;;;3.8;;
81815;SDS011;71249;52.084;5.304;2023-07-28T12:21:17;5.7;;;4.0;;
81815;SDS011;71249;52.084;5.304;2023-07-28T12:22:53;5.7;;;3.9;;
81815;SDS011;71249;52.084;5.304;2023-07-28T12:24:30;7.9;;;4.3;;
81815;SDS011;71249;52.084;5.304;2023-07-28T12:27:42;7.1;;;3.8;;
81815;SDS011;71249;52.084;5.304;2023-07-28T12:29:18;7.2;;;4.0;;
81815;SDS011;71249;52.084;5.304;2023-07-28T12:30:54;7.1;;;4.0;;
81815;SDS011;71249;52.084;5.304;2023-07-28T12:34:06;6.4;;;3.8;;
81815;SDS011;71249;52.084;5.304;2023-07-28T12:35:43;6.6;;;3.8;;
81815;SDS011;71249;52.084;5.304;2023-07-28T12:37:20;6.2;;;4.0;;
81815;SDS011;71249;52.084;5.304;2023-07-28T12:40:32;5.8;;;3.3;;
81815;SDS011;71249;52.084;5.304;2023-07-28T12:42:10;4.41;;;3.5;;